sensor_id;sensor_type;location;lat;lon;timestamp;pressure;altitude;pressure_sealevel;temperature;humidity
19672;BME280;9983;51.114;13.788;2023-06-26T00:00:43;99462.53;;;18.81;100.00
19672;BME280;9983;51.114;13.788;2023-06-26T00:05:43;99454.50;;;18.74;100.00
19672;BME280;9983;51.114;13.788;2023-06-26T00:10:44;99449.94;;;19.16;100.00
19672;BME280;9983;51.114;13.788;2023-06-26T00:15:44;99439.16;;;19.10;100.00
19672;BME280;9983;51.114;13.788;2023-06-26T00:20:44;99447.09;;;18.81;100.00
19672;BME280;9983;51.114;13.788;2023-06-26T00:25:44;99448.88;;;18.87;100.00
19672;BME280;9983;51.114;13.788;2023-06-26T00:30:45;99437.69;;;18.95;100.00
19672;BME280;9983;51.114;13.788;2023-06-26T00:35:45;99436.50;;;19.21;100.00
19672;BME280;9983;51.114;13.788;2023-06-26T00:40:45;99431.56;;;19.30;100.00
19672;BME280;9983;51.114;13.788;2023-06-26T00:45:46;99425.19;;;18.76;100.00
19672;BME280;9983;51.114;13.788;2023-06-26T00:50:47;99431.97;;;18.12;100.00
19672;BME280;9983;51.114;13.788;2023-06-26T00:55:47;99421.19;;;18.06;100.00
19672;BME280;9983;51.114;13.788;2023-06-26T01:00:47;99420.69;;;18.15;100.00
19672;BME280;9983;51.114;13.788;2023-06-26T01:05:52;99422.56;;;18.33;100.00
19672;BME280;9983;51.114;13.788;2023-06-26T01:10:52;99421.25;;;17.99;100.00
19672;BME280;9983;51.114;13.788;2023-06-26T01:15:53;99418.06;;;17.84;100.00
19672;BME280;9983;51.114;13.788;2023-06-26T01:20:53;99416.09;;;17.41;100.00
19672;BME280;9983;51.114;13.788;2023-06-26T01:26:19;99405.69;;;17.70;100.00
19672;BME280;9983;51.114;13.788;2023-06-26T01:31:20;99415.41;;;17.53;100.00
19672;BME280;9983;51.114;13.788;2023-06-26T01:36:20;99407.41;;;17.58;100.00
19672;BME280;9983;51.114;13.788;2023-06-26T01:41:21;99407.59;;;17.38;100.00
19672;BME280;9983;51.114;13.788;2023-06-26T01:46:25;99399.91;;;17.60;100.00
19672;BME280;9983;51.114;13.788;2023-06-26T01:51:31;99390.34;;;17.01;100.00
19672;BME280;9983;51.114;13.788;2023-06-26T01:56:33;99380.09;;;17.34;100.00
19672;BME280;9983;51.114;13.788;2023-06-26T02:01:33;99387.00;;;17.62;100.00
19672;BME280;9983;51.114;13.788;2023-06-26T02:06:34;99372.59;;;17.36;100.00
19672;BME280;9983;51.114;13.788;2023-06-26T02:11:34;99391.13;;;17.08;100.00
19672;BME280;9983;51.114;13.788;2023-06-26T02:16:35;99379.25;;;17.09;100.00
19672;BME280;9983;51.114;13.788;2023-06-26T02:21:35;99388.25;;;17.03;100.00
19672;BME280;9983;51.114;13.788;2023-06-26T02:26:35;99380.81;;;16.54;100.00
19672;BME280;9983;51.114;13.788;2023-06-26T02:31:36;99373.75;;;16.91;100.00
19672;BME280;9983;51.114;13.788;2023-06-26T02:36:36;99378.47;;;16.57;100.00
19672;BME280;9983;51.114;13.788;2023-06-26T02:41:36;99373.41;;;16.81;100.00
19672;BME280;9983;51.114;13.788;2023-06-26T02:46:36;99370.53;;;17.07;100.00
19672;BME280;9983;51.114;13.788;2023-06-26T02:51:37;99367.53;;;16.84;100.00
19672;BME280;9983;51.114;13.788;2023-06-26T02:56:38;99368.81;;;16.81;100.00
19672;BME280;9983;51.114;13.788;2023-06-26T03:01:38;99364.72;;;16.65;100.00
19672;BME280;9983;51.114;13.788;2023-06-26T03:06:38;99374.34;;;16.55;100.00
19672;BME280;9983;51.114;13.788;2023-06-26T03:11:39;99369.19;;;16.85;100.00
19672;BME280;9983;51.114;13.788;2023-06-26T03:16:40;99370.97;;;16.73;100.00
19672;BME280;9983;51.114;13.788;2023-06-26T03:21:40;99378.16;;;17.17;100.00
19672;BME280;9983;51.114;13.788;2023-06-26T03:26:40;99371.22;;;16.96;100.00
19672;BME280;9983;51.114;13.788;2023-06-26T03:31:41;99362.28;;;16.51;100.00
19672;BME280;9983;51.114;13.788;2023-06-26T03:36:41;99371.59;;;16.99;100.00
19672;BME280;9983;51.114;13.788;2023-06-26T03:41:41;99360.16;;;17.29;100.00
19672;BME280;9983;51.114;13.788;2023-06-26T03:46:41;99359.75;;;16.62;100.00
19672;BME280;9983;51.114;13.788;2023-06-26T03:51:42;99350.16;;;16.66;100.00
19672;BME280;9983;51.114;13.788;2023-06-26T03:56:42;99350.84;;;17.43;100.00
19672;BME280;9983;51.114;13.788;2023-06-26T04:01:42;99346.69;;;17.90;100.00
19672;BME280;9983;51.114;13.788;2023-06-26T04:06:42;99350.78;;;17.50;100.00
19672;BME280;9983;51.114;13.788;2023-06-26T04:11:43;99342.81;;;17.55;100.00
19672;BME280;9983;51.114;13.788;2023-06-26T04:16:43;99340.75;;;17.75;100.00
19672;BME280;9983;51.114;13.788;2023-06-26T04:21:44;99332.81;;;17.98;100.00
19672;BME280;9983;51.114;13.788;2023-06-26T04:26:44;99338.97;;;18.24;100.00
19672;BME280;9983;51.114;13.788;2023-06-26T04:31:45;99331.31;;;18.50;100.00
19672;BME280;9983;51.114;13.788;2023-06-26T04:36:46;99329.13;;;18.59;100.00
19672;BME280;9983;51.114;13.788;2023-06-26T04:41:48;99331.59;;;18.31;100.00
19672;BME280;9983;51.114;13.788;2023-06-26T04:46:48;99340.91;;;18.35;100.00
19672;BME280;9983;51.114;13.788;2023-06-26T04:51:49;99333.72;;;18.58;100.00
19672;BME280;9983;51.114;13.788;2023-06-26T04:56:51;99328.81;;;19.09;100.00
19672;BME280;9983;51.114;13.788;2023-06-26T05:01:51;99326.53;;;19.47;100.00
19672;BME280;9983;51.114;13.788;2023-06-26T05:06:51;99328.19;;;19.72;100.00
19672;BME280;9983;51.114;13.788;2023-06-26T05:11:52;99317.72;;;19.92;100.00
19672;BME280;9983;51.114;13.788;2023-06-26T05:16:52;99321.13;;;20.11;100.00
19672;BME280;9983;51.114;13.788;2023-06-26T05:21:53;99319.06;;;20.29;100.00
19672;BME280;9983;51.114;13.788;2023-06-26T05:26:53;99314.56;;;20.47;100.00
19672;BME280;9983;51.114;13.788;2023-06-26T05:31:56;99305.50;;;20.58;100.00
19672;BME280;9983;51.114;13.788;2023-06-26T05:36:58;99302.56;;;20.76;100.00
19672;BME280;9983;51.114;13.788;2023-06-26T05:41:59;99295.81;;;20.95;100.00
19672;BME280;9983;51.114;13.788;2023-06-26T05:46:59;99278.84;;;21.22;100.00
19672;BME280;9983;51.114;13.788;2023-06-26T05:52:00;99292.06;;;21.30;100.00
19672;BME280;9983;51.114;13.788;2023-06-26T05:57:00;99285.09;;;21.55;100.00
19672;BME280;9983;51.114;13.788;2023-06-26T06:02:01;99282.91;;;21.74;100.00
19672;BME280;9983;51.114;13.788;2023-06-26T06:07:01;99279.06;;;21.92;100.00
19672;BME280;9983;51.114;13.788;2023-06-26T06:12:02;99274.69;;;22.13;100.00
19672;BME280;9983;51.114;13.788;2023-06-26T06:17:03;99266.56;;;22.40;100.00
19672;BME280;9983;51.114;13.788;2023-06-26T06:22:04;99273.09;;;22.65;100.00
19672;BME280;9983;51.114;13.788;2023-06-26T06:27:04;99271.16;;;22.88;100.00
19672;BME280;9983;51.114;13.788;2023-06-26T06:32:05;99261.91;;;22.94;100.00
19672;BME280;9983;51.114;13.788;2023-06-26T06:37:05;99268.72;;;23.23;100.00
19672;BME280;9983;51.114;13.788;2023-06-26T06:42:05;99261.75;;;23.42;100.00
19672;BME280;9983;51.114;13.788;2023-06-26T06:47:06;99265.19;;;23.65;100.00
19672;BME280;9983;51.114;13.788;2023-06-26T06:52:06;99255.97;;;23.86;98.40
19672;BME280;9983;51.114;13.788;2023-06-26T06:57:06;99254.16;;;24.02;95.02
19672;BME280;9983;51.114;13.788;2023-06-26T07:02:07;99258.81;;;24.11;93.33
19672;BME280;9983;51.114;13.788;2023-06-26T07:07:07;99253.50;;;24.47;88.81
19672;BME280;9983;51.114;13.788;2023-06-26T07:12:08;99249.41;;;24.49;91.15
19672;BME280;9983;51.114;13.788;2023-06-26T07:17:09;99243.13;;;24.79;85.46
19672;BME280;9983;51.114;13.788;2023-06-26T07:22:09;99244.28;;;24.93;87.71
19672;BME280;9983;51.114;13.788;2023-06-26T07:27:09;99248.34;;;24.81;76.21
19672;BME280;9983;51.114;13.788;2023-06-26T07:32:09;99245.88;;;25.30;77.44
19672;BME280;9983;51.114;13.788;2023-06-26T07:37:10;99242.88;;;25.26;73.30
19672;BME280;9983;51.114;13.788;2023-06-26T07:42:10;99236.00;;;25.39;71.22
19672;BME280;9983;51.114;13.788;2023-06-26T07:47:11;99235.97;;;25.49;70.78
19672;BME280;9983;51.114;13.788;2023-06-26T07:52:11;99243.63;;;25.73;69.59
19672;BME280;9983;51.114;13.788;2023-06-26T07:57:11;99236.34;;;26.07;68.68
19672;BME280;9983;51.114;13.788;2023-06-26T08:02:12;99230.72;;;26.37;66.09
19672;BME280;9983;51.114;13.788;2023-06-26T08:07:13;99226.84;;;26.43;65.18
19672;BME280;9983;51.114;13.788;2023-06-26T08:12:16;99219.16;;;26.40;61.74
19672;BME280;9983;51.114;13.788;2023-06-26T08:17:16;99225.22;;;26.37;53.01
19672;BME280;9983;51.114;13.788;2023-06-26T08:22:16;99228.28;;;26.75;51.11
19672;BME280;9983;51.114;13.788;2023-06-26T08:27:16;99221.53;;;26.96;52.33
19672;BME280;9983;51.114;13.788;2023-06-26T08:32:17;99212.31;;;26.77;50.41
19672;BME280;9983;51.114;13.788;2023-06-26T08:37:17;99206.25;;;27.38;49.39
19672;BME280;9983;51.114;13.788;2023-06-26T08:42:17;99212.28;;;27.45;55.00
19672;BME280;9983;51.114;13.788;2023-06-26T08:47:18;99210.72;;;27.34;50.58
19672;BME280;9983;51.114;13.788;2023-06-26T08:52:30;99203.63;;;27.56;51.03
19672;BME280;9983;51.114;13.788;2023-06-26T08:57:32;99201.03;;;27.65;51.34
19672;BME280;9983;51.114;13.788;2023-06-26T09:02:32;99196.53;;;27.74;50.60
19672;BME280;9983;51.114;13.788;2023-06-26T09:07:32;99189.19;;;27.88;52.18
19672;BME280;9983;51.114;13.788;2023-06-26T09:12:33;99194.69;;;27.88;51.03
19672;BME280;9983;51.114;13.788;2023-06-26T09:17:38;99188.16;;;27.84;48.94
19672;BME280;9983;51.114;13.788;2023-06-26T09:22:42;99189.19;;;27.88;50.94
19672;BME280;9983;51.114;13.788;2023-06-26T09:27:43;99179.13;;;28.40;50.85
19672;BME280;9983;51.114;13.788;2023-06-26T09:32:43;99190.25;;;28.54;52.58
19672;BME280;9983;51.114;13.788;2023-06-26T09:37:44;99185.63;;;28.07;49.46
19672;BME280;9983;51.114;13.788;2023-06-26T09:42:44;99178.25;;;28.26;49.90
19672;BME280;9983;51.114;13.788;2023-06-26T09:47:44;99172.53;;;28.74;47.53
19672;BME280;9983;51.114;13.788;2023-06-26T09:52:44;99167.38;;;29.18;48.10
19672;BME280;9983;51.114;13.788;2023-06-26T09:57:46;99164.91;;;29.30;47.45
19672;BME280;9983;51.114;13.788;2023-06-26T10:02:46;99153.72;;;29.40;47.81
19672;BME280;9983;51.114;13.788;2023-06-26T10:07:46;99153.50;;;29.78;46.39
19672;BME280;9983;51.114;13.788;2023-06-26T10:12:49;99152.06;;;29.67;44.11
19672;BME280;9983;51.114;13.788;2023-06-26T10:17:51;99143.88;;;29.34;43.03
19672;BME280;9983;51.114;13.788;2023-06-26T10:22:57;99146.56;;;29.94;44.21
19672;BME280;9983;51.114;13.788;2023-06-26T10:28:01;99144.28;;;29.96;43.33
19672;BME280;9983;51.114;13.788;2023-06-26T10:33:03;99128.81;;;30.31;43.61
19672;BME280;9983;51.114;13.788;2023-06-26T10:38:03;99124.63;;;29.84;42.07
19672;BME280;9983;51.114;13.788;2023-06-26T10:43:08;99132.41;;;29.82;42.90
19672;BME280;9983;51.114;13.788;2023-06-26T10:48:08;99120.72;;;30.12;41.69
19672;BME280;9983;51.114;13.788;2023-06-26T10:53:14;99120.97;;;30.47;41.40
19672;BME280;9983;51.114;13.788;2023-06-26T10:58:31;99118.81;;;30.22;41.52
19672;BME280;9983;51.114;13.788;2023-06-26T11:03:31;99106.13;;;31.10;39.77
19672;BME280;9983;51.114;13.788;2023-06-26T11:08:48;99111.13;;;31.47;37.86
19672;BME280;9983;51.114;13.788;2023-06-26T11:13:49;99107.53;;;31.95;36.63
19672;BME280;9983;51.114;13.788;2023-06-26T11:18:49;99109.19;;;32.56;35.88
19672;BME280;9983;51.114;13.788;2023-06-26T11:23:50;99101.66;;;33.97;35.44
19672;BME280;9983;51.114;13.788;2023-06-26T11:28:55;99098.38;;;33.36;33.37
19672;BME280;9983;51.114;13.788;2023-06-26T11:33:56;99097.44;;;34.32;32.17
19672;BME280;9983;51.114;13.788;2023-06-26T11:38:59;99099.06;;;33.92;32.81
19672;BME280;9983;51.114;13.788;2023-06-26T11:44:03;99092.38;;;34.67;31.68
19672;BME280;9983;51.114;13.788;2023-06-26T11:49:05;99087.97;;;35.96;29.64
19672;BME280;9983;51.114;13.788;2023-06-26T11:54:06;99079.09;;;36.74;28.09
19672;BME280;9983;51.114;13.788;2023-06-26T11:59:11;99080.03;;;37.10;27.38
19672;BME280;9983;51.114;13.788;2023-06-26T12:04:13;99081.28;;;35.36;30.32
19672;BME280;9983;51.114;13.788;2023-06-26T12:09:15;99068.47;;;37.58;29.11
19672;BME280;9983;51.114;13.788;2023-06-26T12:14:17;99071.66;;;37.92;26.96
19672;BME280;9983;51.114;13.788;2023-06-26T12:19:24;99067.13;;;38.03;27.62
19672;BME280;9983;51.114;13.788;2023-06-26T12:24:25;99070.16;;;37.28;27.08
19672;BME280;9983;51.114;13.788;2023-06-26T12:29:31;99053.28;;;37.91;26.66
19672;BME280;9983;51.114;13.788;2023-06-26T12:34:33;99052.72;;;38.40;27.01
19672;BME280;9983;51.114;13.788;2023-06-26T12:39:53;99042.06;;;37.91;27.63
19672;BME280;9983;51.114;13.788;2023-06-26T12:44:54;99044.16;;;38.13;25.71
19672;BME280;9983;51.114;13.788;2023-06-26T12:49:56;99036.66;;;40.33;25.63
19672;BME280;9983;51.114;13.788;2023-06-26T12:54:57;99034.41;;;38.65;25.57
19672;BME280;9983;51.114;13.788;2023-06-26T12:59:57;99026.81;;;39.60;25.42
19672;BME280;9983;51.114;13.788;2023-06-26T13:04:59;99011.34;;;38.52;25.89
19672;BME280;9983;51.114;13.788;2023-06-26T13:09:59;99009.53;;;38.41;25.83
19672;BME280;9983;51.114;13.788;2023-06-26T13:15:00;99004.84;;;38.90;24.68
19672;BME280;9983;51.114;13.788;2023-06-26T13:20:00;99001.41;;;37.97;25.76
19672;BME280;9983;51.114;13.788;2023-06-26T13:25:00;99000.22;;;38.37;27.01
19672;BME280;9983;51.114;13.788;2023-06-26T13:30:00;98996.84;;;38.92;25.72
19672;BME280;9983;51.114;13.788;2023-06-26T13:35:02;98981.56;;;39.92;24.38
19672;BME280;9983;51.114;13.788;2023-06-26T13:40:04;98970.41;;;39.39;24.49
19672;BME280;9983;51.114;13.788;2023-06-26T13:45:07;98969.44;;;40.54;24.10
19672;BME280;9983;51.114;13.788;2023-06-26T13:50:09;98983.63;;;40.28;21.93
19672;BME280;9983;51.114;13.788;2023-06-26T13:55:09;98969.56;;;38.44;24.76
19672;BME280;9983;51.114;13.788;2023-06-26T14:00:10;98957.50;;;39.91;24.19
19672;BME280;9983;51.114;13.788;2023-06-26T14:05:12;98955.56;;;41.20;23.36
19672;BME280;9983;51.114;13.788;2023-06-26T14:10:12;98953.66;;;40.80;22.23
19672;BME280;9983;51.114;13.788;2023-06-26T14:15:12;98936.59;;;41.68;22.18
19672;BME280;9983;51.114;13.788;2023-06-26T14:20:13;98929.13;;;40.77;23.21
19672;BME280;9983;51.114;13.788;2023-06-26T14:25:14;98915.44;;;41.26;21.94
19672;BME280;9983;51.114;13.788;2023-06-26T14:30:14;98904.25;;;41.34;21.73
19672;BME280;9983;51.114;13.788;2023-06-26T14:35:14;98907.34;;;39.59;22.45
19672;BME280;9983;51.114;13.788;2023-06-26T14:40:14;98871.28;;;37.65;25.73
19672;BME280;9983;51.114;13.788;2023-06-26T14:45:15;98869.03;;;39.11;24.38
19672;BME280;9983;51.114;13.788;2023-06-26T14:50:15;98851.19;;;39.22;23.62
19672;BME280;9983;51.114;13.788;2023-06-26T14:55:15;98852.88;;;40.34;22.47
19672;BME280;9983;51.114;13.788;2023-06-26T15:00:16;98845.94;;;40.69;23.26
19672;BME280;9983;51.114;13.788;2023-06-26T15:05:17;98833.34;;;41.07;21.91
19672;BME280;9983;51.114;13.788;2023-06-26T15:10:17;98832.22;;;39.75;22.79
19672;BME280;9983;51.114;13.788;2023-06-26T15:15:19;98831.47;;;41.28;24.30
19672;BME280;9983;51.114;13.788;2023-06-26T15:20:19;98830.44;;;41.65;22.31
19672;BME280;9983;51.114;13.788;2023-06-26T15:25:19;98826.50;;;40.42;22.89
19672;BME280;9983;51.114;13.788;2023-06-26T15:30:20;98819.31;;;41.10;22.38
19672;BME280;9983;51.114;13.788;2023-06-26T15:35:20;98824.88;;;41.93;21.60
19672;BME280;9983;51.114;13.788;2023-06-26T15:40:21;98823.31;;;40.47;21.67
19672;BME280;9983;51.114;13.788;2023-06-26T15:45:22;98809.00;;;41.36;23.60
19672;BME280;9983;51.114;13.788;2023-06-26T15:50:22;98804.41;;;41.03;22.10
19672;BME280;9983;51.114;13.788;2023-06-26T15:55:23;98805.41;;;39.81;24.44
19672;BME280;9983;51.114;13.788;2023-06-26T16:00:23;98805.78;;;38.57;25.64
19672;BME280;9983;51.114;13.788;2023-06-26T16:05:24;98798.41;;;37.19;25.79
19672;BME280;9983;51.114;13.788;2023-06-26T16:10:24;98812.06;;;36.54;26.73
19672;BME280;9983;51.114;13.788;2023-06-26T16:15:24;98841.50;;;35.09;31.98
19672;BME280;9983;51.114;13.788;2023-06-26T16:20:24;98862.78;;;32.79;40.80
19672;BME280;9983;51.114;13.788;2023-06-26T16:25:25;98918.38;;;31.55;45.70
19672;BME280;9983;51.114;13.788;2023-06-26T16:30:25;98997.69;;;30.01;52.83
19672;BME280;9983;51.114;13.788;2023-06-26T16:35:28;99058.78;;;29.09;59.43
19672;BME280;9983;51.114;13.788;2023-06-26T16:40:30;99053.84;;;27.95;70.98
19672;BME280;9983;51.114;13.788;2023-06-26T16:45:30;99033.81;;;26.52;95.95
19672;BME280;9983;51.114;13.788;2023-06-26T16:50:30;99015.25;;;25.65;100.00
19672;BME280;9983;51.114;13.788;2023-06-26T16:55:31;99022.56;;;25.26;100.00
19672;BME280;9983;51.114;13.788;2023-06-26T17:00:31;99012.00;;;24.79;100.00
19672;BME280;9983;51.114;13.788;2023-06-26T17:05:31;99015.59;;;24.74;100.00
19672;BME280;9983;51.114;13.788;2023-06-26T17:10:31;99003.47;;;24.90;100.00
19672;BME280;9983;51.114;13.788;2023-06-26T17:15:32;98986.41;;;25.14;100.00
19672;BME280;9983;51.114;13.788;2023-06-26T17:20:32;98994.44;;;25.59;100.00
19672;BME280;9983;51.114;13.788;2023-06-26T17:25:32;98991.94;;;25.58;100.00
19672;BME280;9983;51.114;13.788;2023-06-26T17:30:33;98986.56;;;25.82;100.00
19672;BME280;9983;51.114;13.788;2023-06-26T17:35:35;99011.09;;;26.07;100.00
19672;BME280;9983;51.114;13.788;2023-06-26T17:40:37;99032.53;;;26.05;100.00
19672;BME280;9983;51.114;13.788;2023-06-26T17:45:38;99064.38;;;26.06;100.00
19672;BME280;9983;51.114;13.788;2023-06-26T17:50:38;99074.38;;;25.92;100.00
19672;BME280;9983;51.114;13.788;2023-06-26T17:55:38;99105.28;;;25.53;100.00
19672;BME280;9983;51.114;13.788;2023-06-26T18:00:38;99108.00;;;25.74;100.00
19672;BME280;9983;51.114;13.788;2023-06-26T18:05:39;99117.56;;;24.97;100.00
19672;BME280;9983;51.114;13.788;2023-06-26T18:10:39;99129.63;;;24.70;100.00
19672;BME280;9983;51.114;13.788;2023-06-26T18:15:39;99147.75;;;24.91;100.00
19672;BME280;9983;51.114;13.788;2023-06-26T18:20:40;99143.34;;;24.75;100.00
19672;BME280;9983;51.114;13.788;2023-06-26T18:25:40;99143.34;;;24.55;100.00
19672;BME280;9983;51.114;13.788;2023-06-26T18:30:40;99163.06;;;24.72;100.00
19672;BME280;9983;51.114;13.788;2023-06-26T18:35:41;99178.44;;;24.58;100.00
19672;BME280;9983;51.114;13.788;2023-06-26T18:40:41;99180.50;;;24.00;100.00
19672;BME280;9983;51.114;13.788;2023-06-26T18:45:41;99184.88;;;24.06;100.00
19672;BME280;9983;51.114;13.788;2023-06-26T18:50:41;99194.56;;;23.62;100.00
19672;BME280;9983;51.114;13.788;2023-06-26T18:55:42;99195.75;;;23.86;100.00
19672;BME280;9983;51.114;13.788;2023-06-26T19:00:42;99181.75;;;23.67;100.00
19672;BME280;9983;51.114;13.788;2023-06-26T19:05:43;99195.19;;;23.79;100.00
19672;BME280;9983;51.114;13.788;2023-06-26T19:10:43;99208.75;;;23.54;100.00
19672;BME280;9983;51.114;13.788;2023-06-26T19:15:45;99190.69;;;23.53;100.00
19672;BME280;9983;51.114;13.788;2023-06-26T19:20:46;99216.84;;;23.38;100.00
19672;BME280;9983;51.114;13.788;2023-06-26T19:25:46;99217.50;;;23.51;100.00
19672;BME280;9983;51.114;13.788;2023-06-26T19:30:47;99242.34;;;23.07;100.00
19672;BME280;9983;51.114;13.788;2023-06-26T19:35:47;99250.38;;;22.87;100.00
19672;BME280;9983;51.114;13.788;2023-06-26T19:40:47;99245.50;;;23.26;100.00
19672;BME280;9983;51.114;13.788;2023-06-26T19:45:47;99248.56;;;23.34;100.00
19672;BME280;9983;51.114;13.788;2023-06-26T19:50:48;99246.19;;;23.11;100.00
19672;BME280;9983;51.114;13.788;2023-06-26T19:55:49;99243.91;;;22.98;100.00
19672;BME280;9983;51.114;13.788;2023-06-26T20:00:49;99255.13;;;22.21;100.00
19672;BME280;9983;51.114;13.788;2023-06-26T20:05:49;99249.78;;;22.31;100.00
19672;BME280;9983;51.114;13.788;2023-06-26T20:10:50;99262.50;;;22.42;100.00
19672;BME280;9983;51.114;13.788;2023-06-26T20:15:50;99248.38;;;22.50;100.00
19672;BME280;9983;51.114;13.788;2023-06-26T20:20:51;99254.66;;;22.51;100.00
19672;BME280;9983;51.114;13.788;2023-06-26T20:25:51;99253.94;;;22.33;100.00
19672;BME280;9983;51.114;13.788;2023-06-26T20:30:51;99237.78;;;22.32;100.00
19672;BME280;9983;51.114;13.788;2023-06-26T20:35:51;99234.63;;;22.45;100.00
19672;BME280;9983;51.114;13.788;2023-06-26T20:40:52;99240.09;;;22.45;100.00
19672;BME280;9983;51.114;13.788;2023-06-26T20:45:52;99245.38;;;22.79;100.00
19672;BME280;9983;51.114;13.788;2023-06-26T20:50:53;99240.28;;;22.12;100.00
19672;BME280;9983;51.114;13.788;2023-06-26T20:55:53;99226.94;;;21.50;100.00
19672;BME280;9983;51.114;13.788;2023-06-26T21:00:53;99227.56;;;21.57;100.00
19672;BME280;9983;51.114;13.788;2023-06-26T21:05:54;99216.38;;;21.37;100.00
19672;BME280;9983;51.114;13.788;2023-06-26T21:10:54;99226.63;;;22.12;100.00
19672;BME280;9983;51.114;13.788;2023-06-26T21:15:54;99230.72;;;21.49;100.00
19672;BME280;9983;51.114;13.788;2023-06-26T21:20:56;99215.34;;;21.81;100.00
19672;BME280;9983;51.114;13.788;2023-06-26T21:25:56;99208.44;;;20.85;100.00
19672;BME280;9983;51.114;13.788;2023-06-26T21:30:56;99226.69;;;21.73;100.00
19672;BME280;9983;51.114;13.788;2023-06-26T21:35:56;99233.66;;;21.26;100.00
19672;BME280;9983;51.114;13.788;2023-06-26T21:40:57;99235.88;;;20.95;100.00
19672;BME280;9983;51.114;13.788;2023-06-26T21:45:57;99230.88;;;21.59;100.00
19672;BME280;9983;51.114;13.788;2023-06-26T21:50:57;99207.31;;;20.81;100.00
19672;BME280;9983;51.114;13.788;2023-06-26T21:55:57;99216.53;;;21.13;100.00
19672;BME280;9983;51.114;13.788;2023-06-26T22:00:58;99215.38;;;21.86;100.00
19672;BME280;9983;51.114;13.788;2023-06-26T22:05:58;99210.91;;;21.97;100.00
19672;BME280;9983;51.114;13.788;2023-06-26T22:10:58;99200.03;;;21.03;100.00
19672;BME280;9983;51.114;13.788;2023-06-26T22:15:58;99191.63;;;20.88;100.00
19672;BME280;9983;51.114;13.788;2023-06-26T22:20:59;99204.66;;;21.80;100.00
19672;BME280;9983;51.114;13.788;2023-06-26T22:25:59;99204.88;;;21.73;100.00
19672;BME280;9983;51.114;13.788;2023-06-26T22:30:59;99197.53;;;21.02;100.00
19672;BME280;9983;51.114;13.788;2023-06-26T22:36:00;99209.44;;;20.79;100.00
19672;BME280;9983;51.114;13.788;2023-06-26T22:41:00;99229.84;;;21.65;100.00
19672;BME280;9983;51.114;13.788;2023-06-26T22:46:00;99234.38;;;21.38;100.00
19672;BME280;9983;51.114;13.788;2023-06-26T22:51:00;99237.06;;;21.76;100.00
19672;BME280;9983;51.114;13.788;2023-06-26T22:56:01;99228.94;;;21.04;100.00
19672;BME280;9983;51.114;13.788;2023-06-26T23:01:01;99223.63;;;21.48;100.00
19672;BME280;9983;51.114;13.788;2023-06-26T23:06:02;99207.47;;;22.07;100.00
19672;BME280;9983;51.114;13.788;2023-06-26T23:11:04;99229.09;;;21.91;100.00
19672;BME280;9983;51.114;13.788;2023-06-26T23:16:04;99262.59;;;21.65;100.00
19672;BME280;9983;51.114;13.788;2023-06-26T23:21:04;99289.25;;;21.41;100.00
19672;BME280;9983;51.114;13.788;2023-06-26T23:26:04;99313.78;;;20.63;100.00
19672;BME280;9983;51.114;13.788;2023-06-26T23:31:05;99297.44;;;20.63;100.00
19672;BME280;9983;51.114;13.788;2023-06-26T23:36:05;99294.69;;;20.34;100.00
19672;BME280;9983;51.114;13.788;2023-06-26T23:41:08;99304.63;;;20.40;100.00
19672;BME280;9983;51.114;13.788;2023-06-26T23:46:09;99319.69;;;20.60;100.00
19672;BME280;9983;51.114;13.788;2023-06-26T23:51:10;99319.56;;;20.26;100.00
19672;BME280;9983;51.114;13.788;2023-06-26T23:56:11;99329.75;;;20.19;100.00
